Terminal Aerodrome Forecast
Issued by NWS

Home | Current Version | Previous Version | Text Only | Print | Product List | Glossary On
Versions: 1 2 3 4 5 6 7 8 9 10 11 12 13 14 15 16
000
FTUS43 KEAX 030500
TAFSTJ
TAF
KSTJ 030520Z 0306/0406 14011KT P6SM OVC024
     FM031200 19016KT 5SM BR BKN008
     FM031400 20018G25KT P6SM OVC015
     FM032000 30015G23KT P6SM BKN035=

USA.gov is the U.S. government's official web portal to all federal, state and local government web resources and services.